Time;durP1;ratioP1;P1;durP2;ratioP2;P2;SDS_P1;SDS_P2;PMS_P1;PMS_P2;Temp;Humidity;BMP_temperature;BMP_pressure;BME280_temperature;BME280_humidity;BME280_pressure;Samples;Min_cycle;Max_cycle;Signal;HPM_P1;HPM_P2
2021/07/05 00:00:53;;;;;;;8.73;5.50;;;;;;;;;;5032017;28;20404;-51
2021/07/05 00:03:19;;;;;;;4.90;4.53;;;;;;;;;;5033445;28;20381;-51
2021/07/05 00:05:45;;;;;;;6.33;5.30;;;;;;;;;;5032740;28;20433;-51
2021/07/05 00:08:11;;;;;;;5.93;5.10;;;;;;;;;;5033072;28;20508;-52
2021/07/05 00:10:37;;;;;;;6.13;5.63;;;;;;;;;;5032784;28;20426;-51
2021/07/05 00:13:04;;;;;;;5.93;5.43;;;;;;;;;;5033049;28;20377;-51
2021/07/05 00:15:31;;;;;;;11.83;4.87;;;;;;;;;;5032786;28;20399;-52
2021/07/05 00:17:58;;;;;;;4.83;4.43;;;;;;;;;;5033213;28;20490;-52
2021/07/05 00:20:25;;;;;;;4.90;3.50;;;;;;;;;;5032628;28;20377;-52
2021/07/05 00:22:52;;;;;;;6.03;3.70;;;;;;;;;;5033029;28;20410;-51
2021/07/05 00:25:18;;;;;;;4.20;3.50;;;;;;;;;;5032660;28;20377;-52
2021/07/05 00:27:45;;;;;;;5.63;4.40;;;;;;;;;;5032924;28;21043;-52
2021/07/05 00:30:14;;;;;;;4.10;3.70;;;;;;;;;;5032843;28;20406;-51
2021/07/05 00:32:40;;;;;;;4.10;3.80;;;;;;;;;;5032861;28;20405;-52
2021/07/05 00:35:06;;;;;;;4.13;3.77;;;;;;;;;;5032328;28;20380;-51
2021/07/05 00:37:32;;;;;;;3.90;3.70;;;;;;;;;;5032722;28;20487;-52
2021/07/05 00:39:58;;;;;;;4.33;3.70;;;;;;;;;;5032507;28;20952;-51
2021/07/05 00:42:24;;;;;;;5.23;4.73;;;;;;;;;;5032282;28;20436;-52
2021/07/05 00:44:51;;;;;;;4.70;3.80;;;;;;;;;;5032227;28;20383;-51
2021/07/05 00:47:17;;;;;;;5.17;4.67;;;;;;;;;;5032473;28;20453;-52
2021/07/05 00:49:43;;;;;;;5.03;3.73;;;;;;;;;;5032285;28;20794;-52
2021/07/05 00:52:09;;;;;;;4.20;4.00;;;;;;;;;;5032327;28;20431;-51
2021/07/05 00:54:35;;;;;;;4.97;4.57;;;;;;;;;;5032118;28;20833;-51
2021/07/05 00:57:01;;;;;;;4.53;4.20;;;;;;;;;;5032292;28;20472;-51
2021/07/05 00:59:28;;;;;;;4.30;3.97;;;;;;;;;;5032310;28;20449;-52
2021/07/05 01:01:54;;;;;;;4.80;4.40;;;;;;;;;;5031544;28;20401;-51
2021/07/05 01:04:20;;;;;;;4.80;4.40;;;;;;;;;;5031439;28;20409;-52
2021/07/05 01:06:46;;;;;;;4.80;4.10;;;;;;;;;;5031377;28;20385;-51
2021/07/05 01:09:12;;;;;;;5.87;4.47;;;;;;;;;;5031481;28;20406;-52
2021/07/05 01:11:38;;;;;;;4.60;4.20;;;;;;;;;;5032092;28;20420;-50
2021/07/05 01:14:04;;;;;;;4.70;4.27;;;;;;;;;;5031027;28;20398;-50
2021/07/05 01:16:30;;;;;;;5.10;4.67;;;;;;;;;;5031344;28;20373;-51
2021/07/05 01:18:57;;;;;;;8.17;6.00;;;;;;;;;;5030943;28;20410;-50
2021/07/05 01:21:23;;;;;;;6.43;4.93;;;;;;;;;;5031408;28;20419;-50
2021/07/05 01:23:49;;;;;;;9.00;5.77;;;;;;;;;;5030920;28;20377;-51
2021/07/05 01:26:15;;;;;;;5.67;4.87;;;;;;;;;;5031057;28;20398;-50
2021/07/05 01:28:41;;;;;;;6.47;5.10;;;;;;;;;;5031008;28;20976;-50
2021/07/05 01:31:07;;;;;;;7.93;5.00;;;;;;;;;;5030889;28;20564;-51
2021/07/05 01:33:33;;;;;;;5.00;4.60;;;;;;;;;;5030891;28;20485;-52
2021/07/05 01:35:59;;;;;;;10.13;5.10;;;;;;;;;;5030714;28;20403;-51
2021/07/05 01:38:25;;;;;;;7.60;4.73;;;;;;;;;;5030986;28;20467;-51
2021/07/05 01:40:52;;;;;;;5.43;4.90;;;;;;;;;;5030766;28;20427;-51
2021/07/05 01:43:18;;;;;;;5.07;4.67;;;;;;;;;;5031242;28;20490;-50
2021/07/05 01:45:44;;;;;;;5.17;4.60;;;;;;;;;;5030496;28;20404;-50
2021/07/05 01:48:10;;;;;;;7.93;4.17;;;;;;;;;;5030822;28;20817;-50
2021/07/05 01:50:36;;;;;;;6.70;3.90;;;;;;;;;;5030573;28;20516;-50
2021/07/05 01:53:03;;;;;;;4.90;4.17;;;;;;;;;;5030872;28;20413;-50
2021/07/05 01:55:32;;;;;;;6.50;3.93;;;;;;;;;;5030417;28;20402;-50
2021/07/05 01:57:58;;;;;;;6.97;4.03;;;;;;;;;;5030695;28;20464;-51
2021/07/05 02:00:25;;;;;;;5.37;3.90;;;;;;;;;;5030468;28;20425;-52
2021/07/05 02:02:52;;;;;;;4.23;3.30;;;;;;;;;;5030509;28;20390;-50
2021/07/05 02:05:19;;;;;;;4.37;3.50;;;;;;;;;;5030282;28;20492;-51
2021/07/05 02:07:45;;;;;;;4.13;3.83;;;;;;;;;;5030284;28;20441;-52
2021/07/05 02:10:13;;;;;;;5.90;4.07;;;;;;;;;;5030608;28;20405;-51
2021/07/05 02:12:40;;;;;;;3.13;2.90;;;;;;;;;;5012430;28;20460;-52
2021/07/05 02:15:07;;;;;;;4.63;4.10;;;;;;;;;;5030263;28;20565;-51
2021/07/05 02:17:34;;;;;;;8.90;3.40;;;;;;;;;;5030348;28;20425;-50
2021/07/05 02:20:00;;;;;;;5.50;3.50;;;;;;;;;;5030615;28;20718;-51
2021/07/05 02:22:26;;;;;;;3.60;3.30;;;;;;;;;;5030347;28;20798;-50
2021/07/05 02:24:51;;;;;;;3.27;2.90;;;;;;;;;;5034212;28;20416;-50
2021/07/05 02:27:17;;;;;;;3.67;3.30;;;;;;;;;;5034272;28;20449;-51
2021/07/05 02:29:43;;;;;;;4.13;3.83;;;;;;;;;;5034190;28;20377;-51
2021/07/05 02:32:09;;;;;;;3.87;3.67;;;;;;;;;;5034317;28;20419;-52
2021/07/05 02:34:35;;;;;;;5.40;3.10;;;;;;;;;;5033884;28;20421;-51
2021/07/05 02:37:01;;;;;;;5.93;3.40;;;;;;;;;;5034283;28;20384;-50
2021/07/05 02:39:27;;;;;;;5.40;3.60;;;;;;;;;;5034097;28;20778;-50
2021/07/05 02:41:53;;;;;;;4.07;3.43;;;;;;;;;;5034219;28;20418;-50
2021/07/05 02:44:19;;;;;;;3.90;3.60;;;;;;;;;;5033607;28;20887;-50
2021/07/05 02:46:45;;;;;;;3.70;3.47;;;;;;;;;;5034116;28;20406;-50
2021/07/05 02:49:11;;;;;;;3.97;3.60;;;;;;;;;;5034121;28;20733;-50
2021/07/05 02:51:37;;;;;;;4.63;3.67;;;;;;;;;;5033934;28;20467;-51
2021/07/05 02:54:04;;;;;;;9.23;3.50;;;;;;;;;;5033633;28;20412;-51
2021/07/05 02:56:30;;;;;;;3.77;3.57;;;;;;;;;;5033766;28;20854;-50
2021/07/05 02:58:56;;;;;;;3.37;3.10;;;;;;;;;;5033821;28;20440;-50
2021/07/05 03:01:23;;;;;;;3.47;3.27;;;;;;;;;;5033786;28;20393;-50
2021/07/05 03:03:49;;;;;;;7.77;3.80;;;;;;;;;;5033640;28;20402;-50
2021/07/05 03:06:15;;;;;;;3.47;3.17;;;;;;;;;;5033588;28;20914;-51
2021/07/05 03:08:41;;;;;;;6.13;3.47;;;;;;;;;;5033697;28;20427;-52
2021/07/05 03:11:08;;;;;;;6.20;4.17;;;;;;;;;;5033755;28;20433;-50
2021/07/05 03:13:34;;;;;;;3.47;3.27;;;;;;;;;;5033956;28;20383;-50
2021/07/05 03:16:00;;;;;;;4.17;3.77;;;;;;;;;;5033672;28;20812;-50
2021/07/05 03:18:27;;;;;;;3.50;3.20;;;;;;;;;;5033776;28;20922;-51
2021/07/05 03:20:53;;;;;;;3.53;3.00;;;;;;;;;;5033482;28;20404;-51
2021/07/05 03:23:20;;;;;;;4.80;3.30;;;;;;;;;;5033616;28;20447;-50
2021/07/05 03:25:46;;;;;;;4.30;3.10;;;;;;;;;;5033024;28;20493;-51
2021/07/05 03:28:17;;;;;;;3.70;3.40;;;;;;;;;;5033365;28;20993;-51
2021/07/05 03:30:43;;;;;;;10.60;3.70;;;;;;;;;;5033407;28;20457;-50
2021/07/05 03:33:10;;;;;;;4.57;3.03;;;;;;;;;;5033202;28;20428;-50
2021/07/05 03:35:37;;;;;;;3.20;3.00;;;;;;;;;;5032817;28;20373;-52
2021/07/05 03:38:03;;;;;;;3.87;3.60;;;;;;;;;;5033035;28;20403;-51
2021/07/05 03:40:31;;;;;;;3.50;3.20;;;;;;;;;;5033569;28;20381;-51
2021/07/05 03:42:57;;;;;;;3.23;3.00;;;;;;;;;;5032976;28;20402;-51
2021/07/05 03:45:24;;;;;;;3.47;2.93;;;;;;;;;;5032878;28;20456;-51
2021/07/05 03:47:50;;;;;;;3.10;2.80;;;;;;;;;;5032801;28;20837;-52
2021/07/05 03:50:16;;;;;;;2.93;2.73;;;;;;;;;;5032818;28;20373;-50
2021/07/05 03:52:43;;;;;;;3.17;2.97;;;;;;;;;;5032741;28;20388;-51
2021/07/05 03:55:10;;;;;;;7.20;4.03;;;;;;;;;;5032525;28;20652;-51
2021/07/05 03:57:36;;;;;;;4.13;2.80;;;;;;;;;;5032655;28;20892;-52
2021/07/05 04:00:05;;;;;;;5.37;3.10;;;;;;;;;;5032746;28;20406;-52
2021/07/05 04:02:31;;;;;;;5.77;3.20;;;;;;;;;;5032823;28;20446;-51
2021/07/05 04:04:57;;;;;;;3.03;2.83;;;;;;;;;;5032256;28;20814;-50
2021/07/05 04:07:23;;;;;;;3.07;2.83;;;;;;;;;;5032518;28;20844;-50
2021/07/05 04:09:49;;;;;;;3.90;3.00;;;;;;;;;;5032635;28;20736;-51
2021/07/05 04:12:19;;;;;;;3.03;2.70;;;;;;;;;;5032398;28;20466;-51
2021/07/05 04:14:45;;;;;;;4.93;2.47;;;;;;;;;;5032109;28;20558;-50
2021/07/05 04:17:11;;;;;;;2.77;2.57;;;;;;;;;;5032492;28;20392;-50
2021/07/05 04:19:37;;;;;;;2.40;2.20;;;;;;;;;;5032147;28;20381;-50
2021/07/05 04:22:04;;;;;;;3.27;2.97;;;;;;;;;;5032160;28;20414;-50
2021/07/05 04:24:30;;;;;;;3.20;3.00;;;;;;;;;;5031827;28;20382;-51
2021/07/05 04:26:56;;;;;;;3.30;2.77;;;;;;;;;;5032193;28;20411;-52
2021/07/05 04:29:22;;;;;;;4.60;3.17;;;;;;;;;;5032015;28;20379;-51
2021/07/05 04:31:48;;;;;;;11.83;2.60;;;;;;;;;;5032474;28;20438;-51
2021/07/05 04:34:14;;;;;;;4.80;2.60;;;;;;;;;;5031958;28;20374;-51
2021/07/05 04:36:40;;;;;;;3.37;2.43;;;;;;;;;;5032395;28;20405;-51
2021/07/05 04:39:07;;;;;;;2.63;2.53;;;;;;;;;;5032067;28;20912;-50
2021/07/05 04:41:34;;;;;;;3.63;2.80;;;;;;;;;;5031702;28;20415;-51
2021/07/05 04:44:00;;;;;;;2.50;2.40;;;;;;;;;;5031694;28;20373;-51
2021/07/05 04:46:26;;;;;;;2.57;2.40;;;;;;;;;;5031098;28;20404;-50
2021/07/05 04:48:54;;;;;;;2.90;2.70;;;;;;;;;;5031742;28;20512;-51
2021/07/05 04:51:23;;;;;;;3.20;3.00;;;;;;;;;;5031546;28;20411;-50
2021/07/05 04:53:48;;;;;;;2.93;2.60;;;;;;;;;;5031789;28;20466;-51
2021/07/05 04:56:14;;;;;;;2.77;2.37;;;;;;;;;;5031572;28;20468;-51
2021/07/05 04:58:40;;;;;;;2.50;2.30;;;;;;;;;;5032027;28;20389;-51
2021/07/05 05:01:07;;;;;;;3.83;2.40;;;;;;;;;;5031501;28;20424;-51
2021/07/05 05:03:33;;;;;;;2.70;2.60;;;;;;;;;;5031592;28;20415;-50
2021/07/05 05:05:59;;;;;;;8.23;3.63;;;;;;;;;;5031318;28;20387;-51
2021/07/05 05:08:25;;;;;;;12.90;4.47;;;;;;;;;;5031577;28;20466;-53
2021/07/05 05:10:51;;;;;;;16.33;4.83;;;;;;;;;;5031313;28;20437;-53
2021/07/05 05:13:17;;;;;;;5.97;5.37;;;;;;;;;;5031299;28;20409;-52
2021/07/05 05:15:42;;;;;;;24.93;6.40;;;;;;;;;;5031558;28;20402;-53
2021/07/05 05:18:09;;;;;;;8.17;5.43;;;;;;;;;;5031210;28;20410;-52
2021/07/05 05:20:35;;;;;;;9.80;5.43;;;;;;;;;;5031171;28;20453;-52
2021/07/05 05:23:01;;;;;;;8.00;4.67;;;;;;;;;;5031091;28;20865;-52
2021/07/05 05:25:27;;;;;;;6.10;3.50;;;;;;;;;;5031163;28;20437;-52
2021/07/05 05:27:53;;;;;;;6.70;3.70;;;;;;;;;;5031054;28;20468;-52
2021/07/05 05:30:21;;;;;;;4.83;4.43;;;;;;;;;;5031060;28;20380;-52
2021/07/05 05:32:47;;;;;;;7.33;4.70;;;;;;;;;;5030877;28;20414;-52
2021/07/05 05:35:14;;;;;;;10.20;4.50;;;;;;;;;;5030989;28;20415;-52
2021/07/05 05:37:40;;;;;;;6.97;4.60;;;;;;;;;;5030883;28;20441;-52
2021/07/05 05:40:06;;;;;;;5.37;4.80;;;;;;;;;;5030962;28;20420;-52
2021/07/05 05:42:32;;;;;;;15.97;5.67;;;;;;;;;;5030790;28;20794;-52
2021/07/05 05:44:58;;;;;;;5.80;5.30;;;;;;;;;;5030860;28;20890;-52
2021/07/05 05:47:24;;;;;;;10.43;6.60;;;;;;;;;;5030734;28;20416;-52
2021/07/05 05:49:50;;;;;;;8.17;7.07;;;;;;;;;;5030883;28;20397;-53
2021/07/05 05:52:16;;;;;;;26.83;7.83;;;;;;;;;;5030694;28;20393;-52
2021/07/05 05:54:42;;;;;;;7.37;5.40;;;;;;;;;;5030337;28;20446;-52
2021/07/05 05:57:24;;;;;;;5.60;4.53;;;;;;;;;;5030158;28;20417;-52
2021/07/05 05:59:50;;;;;;;4.73;4.10;;;;;;;;;;5031065;28;20467;-52
2021/07/05 06:02:16;;;;;;;6.47;4.23;;;;;;;;;;5030423;28;20450;-52
2021/07/05 06:04:42;;;;;;;6.20;3.70;;;;;;;;;;5012451;28;20939;-52
2021/07/05 06:07:08;;;;;;;7.53;3.80;;;;;;;;;;5030477;28;20922;-52
2021/07/05 06:09:34;;;;;;;4.20;3.80;;;;;;;;;;5030625;28;20580;-52
2021/07/05 06:12:00;;;;;;;6.23;3.57;;;;;;;;;;5030505;28;20960;-52
2021/07/05 06:14:26;;;;;;;4.20;3.80;;;;;;;;;;5030110;28;20759;-52
2021/07/05 06:16:52;;;;;;;5.80;3.70;;;;;;;;;;5030415;28;20472;-52
2021/07/05 06:19:18;;;;;;;13.37;4.00;;;;;;;;;;5030229;28;20398;-52
2021/07/05 06:21:44;;;;;;;6.83;4.90;;;;;;;;;;5030430;28;20421;-52
2021/07/05 06:24:10;;;;;;;5.23;4.70;;;;;;;;;;5030201;28;20409;-52
2021/07/05 06:26:36;;;;;;;6.53;5.00;;;;;;;;;;5030353;28;20403;-52
2021/07/05 06:29:02;;;;;;;7.23;6.40;;;;;;;;;;5030350;28;20466;-52
2021/07/05 06:31:29;;;;;;;9.90;5.17;;;;;;;;;;5030091;28;20417;-53
2021/07/05 06:33:55;;;;;;;7.40;6.33;;;;;;;;;;5012652;28;20484;-51
2021/07/05 06:36:21;;;;;;;7.70;6.93;;;;;;;;;;5030392;28;20414;-51
2021/07/05 06:38:47;;;;;;;8.37;7.27;;;;;;;;;;5030784;28;20523;-51
2021/07/05 06:41:13;;;;;;;8.27;7.57;;;;;;;;;;5030209;28;20401;-51
2021/07/05 06:43:39;;;;;;;8.67;7.77;;;;;;;;;;5030075;28;20458;-51
2021/07/05 06:46:05;;;;;;;9.10;8.07;;;;;;;;;;5029897;28;20418;-52
2021/07/05 06:48:31;;;;;;;9.90;8.90;;;;;;;;;;5030327;28;20515;-51
2021/07/05 06:50:57;;;;;;;10.70;7.80;;;;;;;;;;5030006;28;20513;-51
2021/07/05 06:53:23;;;;;;;9.33;7.87;;;;;;;;;;5030265;28;20406;-52
2021/07/05 06:55:49;;;;;;;7.97;7.20;;;;;;;;;;5029953;28;20451;-51
2021/07/05 06:58:15;;;;;;;8.90;8.00;;;;;;;;;;5030189;28;20881;-52
2021/07/05 07:00:41;;;;;;;7.80;7.10;;;;;;;;;;5029918;28;20769;-51
2021/07/05 07:03:07;;;;;;;7.27;6.40;;;;;;;;;;5030196;28;20402;-52
2021/07/05 07:05:34;;;;;;;6.80;5.57;;;;;;;;;;5029884;28;20418;-52
2021/07/05 07:08:00;;;;;;;5.40;4.80;;;;;;;;;;5030090;28;20458;-52
2021/07/05 07:10:27;;;;;;;12.13;4.70;;;;;;;;;;5033033;28;20426;-52
2021/07/05 07:12:55;;;;;;;5.53;5.03;;;;;;;;;;5034225;28;20426;-51
2021/07/05 07:15:23;;;;;;;5.70;5.20;;;;;;;;;;5033774;28;20462;-52
2021/07/05 07:20:19;;;;;;;5.10;4.40;;;;;;;;;;5034634;28;20386;-52
2021/07/05 07:22:45;;;;;;;6.13;5.53;;;;;;;;;;5053043;28;20433;-52
2021/07/05 07:25:12;;;;;;;4.87;4.47;;;;;;;;;;5052584;28;20939;-51
2021/07/05 07:27:38;;;;;;;5.20;4.50;;;;;;;;;;5051190;28;20447;-52
2021/07/05 07:30:05;;;;;;;6.00;4.50;;;;;;;;;;5051737;28;20404;-51
2021/07/05 07:32:31;;;;;;;5.73;4.80;;;;;;;;;;5052127;28;20393;-52
2021/07/05 07:34:57;;;;;;;5.27;4.07;;;;;;;;;;5052685;28;20917;-52
2021/07/05 07:37:24;;;;;;;3.67;3.23;;;;;;;;;;5052996;28;20428;-53
2021/07/05 07:40:03;;;;;;;5.10;3.87;;;;;;;;;;5053198;28;20415;-52
2021/07/05 07:42:30;;;;;;;4.07;3.57;;;;;;;;;;5052762;28;20935;-51
2021/07/05 07:44:56;;;;;;;3.53;3.30;;;;;;;;;;5052692;28;20487;-51
2021/07/05 07:47:22;;;;;;;7.23;3.67;;;;;;;;;;5052758;28;21006;-52
2021/07/05 07:49:48;;;;;;;4.77;3.37;;;;;;;;;;5052921;28;20459;-51
2021/07/05 07:52:14;;;;;;;4.10;3.70;;;;;;;;;;5053122;28;20521;-51
2021/07/05 07:54:40;;;;;;;6.40;3.63;;;;;;;;;;5052544;28;20468;-51
2021/07/05 07:57:06;;;;;;;3.30;3.10;;;;;;;;;;5052990;28;20487;-51
2021/07/05 07:59:32;;;;;;;8.87;3.27;;;;;;;;;;5052618;28;20455;-51
2021/07/05 08:01:57;;;;;;;4.97;3.70;;;;;;;;;;5051495;28;20880;-51
2021/07/05 08:04:23;;;;;;;3.90;3.53;;;;;;;;;;5052219;28;20534;-51
2021/07/05 08:06:49;;;;;;;5.00;3.63;;;;;;;;;;5052613;28;20408;-51
2021/07/05 08:09:15;;;;;;;3.83;3.53;;;;;;;;;;5052389;28;20460;-52
2021/07/05 08:11:41;;;;;;;4.30;3.07;;;;;;;;;;5052341;28;20415;-52
2021/07/05 08:14:08;;;;;;;4.80;3.80;;;;;;;;;;5052156;28;20409;-51
2021/07/05 08:16:34;;;;;;;3.70;3.40;;;;;;;;;;5052522;28;20830;-52
2021/07/05 08:19:00;;;;;;;6.23;3.33;;;;;;;;;;5052357;28;20454;-52
2021/07/05 08:21:26;;;;;;;4.10;3.53;;;;;;;;;;5051314;28;20425;-52
2021/07/05 08:23:52;;;;;;;5.60;3.63;;;;;;;;;;5051905;28;20914;-52
2021/07/05 08:26:18;;;;;;;4.00;3.60;;;;;;;;;;5052291;28;20535;-52
2021/07/05 08:28:45;;;;;;;3.83;3.10;;;;;;;;;;5052036;28;20449;-52
2021/07/05 08:31:11;;;;;;;7.10;4.03;;;;;;;;;;5052190;28;20763;-51
2021/07/05 08:33:38;;;;;;;4.70;3.23;;;;;;;;;;5051921;28;20736;-52
2021/07/05 08:36:04;;;;;;;4.43;2.80;;;;;;;;;;5052068;28;20404;-52
2021/07/05 08:38:30;;;;;;;5.53;3.13;;;;;;;;;;5051950;28;20400;-52
2021/07/05 08:40:58;;;;;;;3.80;3.10;;;;;;;;;;5052203;28;20435;-51
2021/07/05 08:43:27;;;;;;;5.70;3.70;;;;;;;;;;5051807;28;20435;-51
2021/07/05 08:46:07;;;;;;;4.17;2.90;;;;;;;;;;5051673;28;21001;-52
2021/07/05 08:48:34;;;;;;;6.57;3.07;;;;;;;;;;5051701;28;20464;-53
2021/07/05 08:51:01;;;;;;;3.33;3.03;;;;;;;;;;5051670;28;20918;-52
2021/07/05 08:53:27;;;;;;;4.77;3.00;;;;;;;;;;5051849;28;20400;-52
2021/07/05 08:55:53;;;;;;;7.30;4.00;;;;;;;;;;5051385;28;20432;-53
2021/07/05 08:58:19;;;;;;;3.40;3.10;;;;;;;;;;5051757;28;20401;-52
2021/07/05 09:00:45;;;;;;;7.23;3.40;;;;;;;;;;5051553;28;20431;-51
2021/07/05 09:03:11;;;;;;;4.90;3.50;;;;;;;;;;5051686;28;20412;-51
2021/07/05 09:05:37;;;;;;;4.30;3.20;;;;;;;;;;5051250;28;20404;-51
2021/07/05 09:08:07;;;;;;;4.90;3.17;;;;;;;;;;5051588;28;20969;-52
2021/07/05 09:10:41;;;;;;;3.70;3.20;;;;;;;;;;5051339;28;20404;-51
2021/07/05 09:13:08;;;;;;;5.93;2.87;;;;;;;;;;5050533;28;20396;-53
2021/07/05 09:15:42;;;;;;;5.87;3.30;;;;;;;;;;5050325;28;20401;-50
2021/07/05 09:18:23;;;;;;;3.53;3.23;;;;;;;;;;5051415;28;20400;-51
2021/07/05 09:20:50;;;;;;;4.40;3.27;;;;;;;;;;5051479;28;20413;-51
2021/07/05 09:23:16;;;;;;;7.53;4.30;;;;;;;;;;5051494;28;20895;-51
2021/07/05 09:25:44;;;;;;;7.83;4.57;;;;;;;;;;5050696;28;20477;-50
2021/07/05 09:28:10;;;;;;;6.13;5.53;;;;;;;;;;5050775;28;20460;-52
2021/07/05 09:30:38;;;;;;;7.30;5.10;;;;;;;;;;5051128;28;20417;-51
2021/07/05 09:33:20;;;;;;;9.80;6.20;;;;;;;;;;5051098;28;20393;-51
2021/07/05 09:35:51;;;;;;;7.80;6.57;;;;;;;;;;5050661;28;20393;-51
2021/07/05 09:38:36;;;;;;;5.80;5.30;;;;;;;;;;5050964;28;20839;-51
2021/07/05 09:41:23;;;;;;;8.60;5.67;;;;;;;;;;5050596;28;20421;-51
2021/07/05 09:43:54;;;;;;;5.83;4.60;;;;;;;;;;5050529;28;20427;-51
2021/07/05 09:46:43;;;;;;;5.33;4.83;;;;;;;;;;5050676;28;20408;-50
2021/07/05 09:49:14;;;;;;;7.37;5.30;;;;;;;;;;5042775;28;20469;-52
2021/07/05 09:51:44;;;;;;;5.37;4.73;;;;;;;;;;5050289;28;20831;-50
2021/07/05 09:54:10;;;;;;;4.93;4.53;;;;;;;;;;5050326;28;20402;-51
2021/07/05 09:56:36;;;;;;;5.53;4.10;;;;;;;;;;5050279;28;20402;-51
2021/07/05 09:59:19;;;;;;;3.83;3.57;;;;;;;;;;5050535;28;20401;-51
2021/07/05 10:01:47;;;;;;;5.97;4.37;;;;;;;;;;5050228;28;20726;-50
2021/07/05 10:04:16;;;;;;;7.40;4.10;;;;;;;;;;5049106;28;20411;-51
2021/07/05 10:06:46;;;;;;;7.50;4.90;;;;;;;;;;5048520;28;20408;-51
2021/07/05 10:09:13;;;;;;;4.83;4.43;;;;;;;;;;5048834;28;20546;-50
2021/07/05 10:11:39;;;;;;;7.37;4.60;;;;;;;;;;5030655;28;20481;-52
2021/07/05 10:14:16;;;;;;;5.77;4.53;;;;;;;;;;5029841;28;20410;-51
2021/07/05 10:16:43;;;;;;;4.77;4.30;;;;;;;;;;5030686;28;20640;-50
2021/07/05 10:19:10;;;;;;;4.97;4.47;;;;;;;;;;5012618;28;20778;-50
2021/07/05 10:21:37;;;;;;;6.40;4.77;;;;;;;;;;5030319;28;20426;-50
2021/07/05 10:24:05;;;;;;;5.60;4.87;;;;;;;;;;5030136;28;20723;-50
2021/07/05 10:26:31;;;;;;;4.90;4.47;;;;;;;;;;5029555;28;20412;-50
2021/07/05 10:28:57;;;;;;;5.37;4.57;;;;;;;;;;5029953;28;20457;-50
2021/07/05 10:31:25;;;;;;;7.60;5.30;;;;;;;;;;5030287;28;20438;-50
2021/07/05 10:33:51;;;;;;;4.60;4.20;;;;;;;;;;5029975;28;20818;-51
2021/07/05 10:36:17;;;;;;;4.93;4.50;;;;;;;;;;5030660;28;20402;-50
2021/07/05 10:38:50;;;;;;;6.20;5.60;;;;;;;;;;5030129;28;20434;-51
2021/07/05 10:41:18;;;;;;;5.90;5.40;;;;;;;;;;5030107;28;20499;-50
2021/07/05 10:43:59;;;;;;;7.00;5.23;;;;;;;;;;5030418;28;20398;-50
2021/07/05 10:46:44;;;;;;;5.30;4.90;;;;;;;;;;5034351;28;20407;-50
2021/07/05 10:49:31;;;;;;;7.23;5.23;;;;;;;;;;5033913;28;20969;-52
2021/07/05 10:52:01;;;;;;;5.53;5.00;;;;;;;;;;5034258;28;20487;-50
2021/07/05 10:54:42;;;;;;;5.77;5.27;;;;;;;;;;5033700;28;20785;-51
2021/07/05 10:57:08;;;;;;;9.37;5.57;;;;;;;;;;5033943;28;20739;-51
2021/07/05 10:59:35;;;;;;;13.67;5.80;;;;;;;;;;5034078;28;20432;-50
2021/07/05 11:02:01;;;;;;;6.43;4.37;;;;;;;;;;5033787;28;20501;-50
2021/07/05 11:04:31;;;;;;;5.20;4.47;;;;;;;;;;5033973;28;20486;-51
2021/07/05 11:07:14;;;;;;;5.60;5.07;;;;;;;;;;5043099;28;20902;-51
2021/07/05 11:09:51;;;;;;;5.63;4.80;;;;;;;;;;5053515;28;20409;-54
2021/07/05 11:12:27;;;;;;;5.40;3.80;;;;;;;;;;5052663;28;20464;-51
2021/07/05 11:14:53;;;;;;;6.23;4.57;;;;;;;;;;5053698;28;20937;-54
2021/07/05 11:17:21;;;;;;;5.73;5.23;;;;;;;;;;5051364;28;20953;-52
2021/07/05 11:19:51;;;;;;;5.50;4.70;;;;;;;;;;5053860;28;20427;-51
2021/07/05 11:22:17;;;;;;;7.90;6.17;;;;;;;;;;5052720;28;20425;-52
2021/07/05 11:24:46;;;;;;;5.27;4.87;;;;;;;;;;5053030;28;20476;-52
2021/07/05 11:27:27;;;;;;;7.10;5.37;;;;;;;;;;5053154;28;20401;-51
2021/07/05 11:29:54;;;;;;;5.77;5.10;;;;;;;;;;5053716;28;20918;-52
2021/07/05 11:32:36;;;;;;;11.47;5.13;;;;;;;;;;5052922;28;20417;-51
2021/07/05 11:35:02;;;;;;;5.97;4.83;;;;;;;;;;5052857;28;20484;-51
2021/07/05 11:37:28;;;;;;;6.43;5.77;;;;;;;;;;5052853;28;20432;-51
2021/07/05 11:39:54;;;;;;;5.93;4.83;;;;;;;;;;5053246;28;20409;-51
2021/07/05 11:42:32;;;;;;;5.57;5.23;;;;;;;;;;5052484;28;21003;-51
2021/07/05 11:44:58;;;;;;;5.57;5.07;;;;;;;;;;5053263;28;20822;-51
2021/07/05 11:47:37;;;;;;;5.00;4.70;;;;;;;;;;5053159;28;20973;-51
2021/07/05 11:50:15;;;;;;;9.33;4.90;;;;;;;;;;5052690;28;20389;-52
2021/07/05 11:52:48;;;;;;;6.70;6.00;;;;;;;;;;5052982;28;20423;-51
2021/07/05 11:55:15;;;;;;;4.93;4.67;;;;;;;;;;5052687;28;20496;-52
2021/07/05 11:58:07;;;;;;;8.20;4.90;;;;;;;;;;5053461;28;20409;-51
2021/07/05 12:00:40;;;;;;;5.70;5.20;;;;;;;;;;5046153;28;20448;-51
2021/07/05 12:03:07;;;;;;;6.77;6.17;;;;;;;;;;5053497;28;20488;-53
2021/07/05 12:05:34;;;;;;;6.33;5.90;;;;;;;;;;5052971;28;20412;-52
2021/07/05 12:08:07;;;;;;;5.83;5.30;;;;;;;;;;5052876;28;20448;-51
2021/07/05 12:10:34;;;;;;;8.73;5.10;;;;;;;;;;5052390;28;20626;-51
2021/07/05 12:13:13;;;;;;;5.50;5.10;;;;;;;;;;5052544;28;20439;-51
2021/07/05 12:15:40;;;;;;;6.27;4.73;;;;;;;;;;5052164;28;20926;-51
2021/07/05 12:18:06;;;;;;;5.33;4.83;;;;;;;;;;5052520;28;20406;-52
2021/07/05 12:20:33;;;;;;;5.87;5.10;;;;;;;;;;5052646;28;20412;-52
2021/07/05 12:23:12;;;;;;;6.53;5.17;;;;;;;;;;5052660;28;20400;-51
2021/07/05 12:25:38;;;;;;;5.40;4.90;;;;;;;;;;5052125;28;20452;-51
2021/07/05 12:28:22;;;;;;;7.00;6.30;;;;;;;;;;5052346;28;20490;-52
2021/07/05 12:30:49;;;;;;;5.70;5.20;;;;;;;;;;5051930;28;20425;-52
2021/07/05 12:33:17;;;;;;;5.70;5.10;;;;;;;;;;5050997;28;20405;-51
2021/07/05 12:35:43;;;;;;;5.07;4.70;;;;;;;;;;5051170;28;20406;-52
2021/07/05 12:38:11;;;;;;;5.03;4.50;;;;;;;;;;5051400;28;20480;-51
2021/07/05 12:40:37;;;;;;;5.30;4.90;;;;;;;;;;5033867;28;20520;-52
2021/07/05 12:43:04;;;;;;;5.80;5.17;;;;;;;;;;5051631;28;20822;-52
2021/07/05 12:45:39;;;;;;;7.33;4.90;;;;;;;;;;5051953;28;20409;-51
2021/07/05 12:48:11;;;;;;;5.80;4.93;;;;;;;;;;5051676;28;20543;-53
2021/07/05 12:50:46;;;;;;;4.77;4.37;;;;;;;;;;5053039;28;20420;-51
2021/07/05 12:53:28;;;;;;;4.03;3.63;;;;;;;;;;5051186;28;20424;-51
2021/07/05 12:55:57;;;;;;;6.63;4.13;;;;;;;;;;5050286;28;20409;-52
2021/07/05 12:58:49;;;;;;;5.30;4.67;;;;;;;;;;5051472;28;20414;-52
2021/07/05 13:01:18;;;;;;;4.67;4.37;;;;;;;;;;5048531;28;20548;-51
2021/07/05 13:03:56;;;;;;;5.47;4.93;;;;;;;;;;5052475;28;20843;-51
2021/07/05 13:06:22;;;;;;;7.83;5.53;;;;;;;;;;5052314;28;20420;-51
2021/07/05 13:08:54;;;;;;;6.33;5.43;;;;;;;;;;5052470;28;20548;-51
2021/07/05 13:11:20;;;;;;;5.93;5.63;;;;;;;;;;5052359;28;20449;-51
2021/07/05 13:13:46;;;;;;;6.30;5.80;;;;;;;;;;5052539;28;20434;-53
2021/07/05 13:16:25;;;;;;;6.00;5.50;;;;;;;;;;5052531;28;20484;-52
2021/07/05 13:18:52;;;;;;;5.20;4.60;;;;;;;;;;5052871;28;20409;-52
2021/07/05 13:21:28;;;;;;;5.97;4.10;;;;;;;;;;5051676;28;20429;-51
2021/07/05 13:23:55;;;;;;;5.63;3.83;;;;;;;;;;5051953;28;20917;-51
2021/07/05 13:26:33;;;;;;;5.33;4.93;;;;;;;;;;5051881;28;20409;-51
2021/07/05 13:28:59;;;;;;;7.63;6.57;;;;;;;;;;5052470;28;20897;-51
2021/07/05 13:31:35;;;;;;;7.33;6.70;;;;;;;;;;5052207;28;20942;-52
2021/07/05 13:34:01;;;;;;;8.17;6.10;;;;;;;;;;5052162;28;20905;-51
2021/07/05 13:36:27;;;;;;;5.50;5.00;;;;;;;;;;5052166;28;20461;-51
2021/07/05 13:38:53;;;;;;;6.03;5.53;;;;;;;;;;5052524;28;20432;-51
2021/07/05 13:41:20;;;;;;;5.77;5.37;;;;;;;;;;5051931;28;20431;-51
2021/07/05 13:43:49;;;;;;;7.10;6.50;;;;;;;;;;5050937;28;20409;-51
2021/07/05 13:46:15;;;;;;;6.33;5.83;;;;;;;;;;5051363;28;20416;-52
2021/07/05 13:48:42;;;;;;;5.87;5.37;;;;;;;;;;5051459;28;20438;-52
2021/07/05 13:51:09;;;;;;;9.67;5.10;;;;;;;;;;5051275;28;20935;-52
2021/07/05 13:53:40;;;;;;;6.07;5.60;;;;;;;;;;5050305;28;20480;-51
2021/07/05 13:56:21;;;;;;;6.53;6.03;;;;;;;;;;5032663;28;20809;-50
2021/07/05 13:58:49;;;;;;;6.00;5.40;;;;;;;;;;5050368;28;20888;-50
2021/07/05 14:01:17;;;;;;;7.33;5.50;;;;;;;;;;5050377;28;20417;-51
2021/07/05 14:03:44;;;;;;;5.50;5.00;;;;;;;;;;5050447;28;20413;-51
2021/07/05 14:06:11;;;;;;;4.97;4.47;;;;;;;;;;5050546;28;20401;-50
2021/07/05 14:08:38;;;;;;;9.03;4.67;;;;;;;;;;5050207;28;20819;-50
2021/07/05 14:11:05;;;;;;;4.90;4.50;;;;;;;;;;5050331;28;20444;-50
2021/07/05 14:13:32;;;;;;;4.97;4.57;;;;;;;;;;5050440;28;20392;-52
2021/07/05 14:16:01;;;;;;;6.80;4.33;;;;;;;;;;5049921;28;20416;-50
2021/07/05 14:18:27;;;;;;;5.43;4.93;;;;;;;;;;5050453;28;20409;-51
2021/07/05 14:20:54;;;;;;;5.00;4.60;;;;;;;;;;5054274;28;20428;-51
2021/07/05 14:23:20;;;;;;;5.30;4.00;;;;;;;;;;5036880;28;20405;-51
2021/07/05 14:25:48;;;;;;;4.07;3.60;;;;;;;;;;5054149;28;20444;-52
2021/07/05 14:28:14;;;;;;;5.53;3.90;;;;;;;;;;5054308;28;20437;-51
2021/07/05 14:30:41;;;;;;;4.03;3.73;;;;;;;;;;5054171;28;20930;-51
2021/07/05 14:33:07;;;;;;;5.13;3.37;;;;;;;;;;5054374;28;20905;-51
2021/07/05 14:35:34;;;;;;;4.10;3.90;;;;;;;;;;5053989;28;20410;-53
2021/07/05 14:38:00;;;;;;;4.37;3.97;;;;;;;;;;5054497;28;20782;-51
2021/07/05 14:40:28;;;;;;;3.93;3.73;;;;;;;;;;5054257;28;20403;-51
2021/07/05 14:42:54;;;;;;;4.07;3.67;;;;;;;;;;5054019;28;20445;-51
2021/07/05 14:45:20;;;;;;;4.00;3.60;;;;;;;;;;5054322;28;20415;-51
2021/07/05 14:47:47;;;;;;;4.67;3.40;;;;;;;;;;5054023;28;20553;-51
2021/07/05 14:50:14;;;;;;;6.30;3.10;;;;;;;;;;5054070;28;20800;-51